Jamie Marie — WDE7178 — position and weather

sailwx.info

Track history (hours):
 
Tides and Currents Weather Stations Pressure Air Temp Water Temp Dewpoint Dewpoint Depression Visibility Wind Speed Wind Dir Waves Ship Positions

Jamie Marie

Owner: Jamie Marie, Inc., Aberdeen, WA. More information available from US FCC via Universal Licensing System and Coast Guard Vessel Documentation Center.

Last reported at 2015-Jul-26 05:33 UTC. Time now 2015-Jul-28 03:30 UTC.
Position N 46°56' W 124°13'.

Length 30 m.

Type: Fishing. MMSI: 366425240.

Date/timePositionNaut miles runAvg speedWind from/ knotsBaromVisibWave heightAir tempDewpointWater temp
2015-Jul-26 05:33N 46°56' W 124°13'9 8.7
2015-Jul-26 04:33N 46°59' W 124°25'9 9.1
2015-Jul-26 03:33N 47°04' W 124°36'6 2.6
2015-Jul-26 01:26N 47°05' W 124°44'2 0.9
2015-Jul-25 22:31N 47°03' W 124°44'2 1.7
2015-Jul-25 21:29N 47°04' W 124°45'1 0.2
2015-Jul-25 19:27N 47°05' W 124°45'4 1.7
2015-Jul-25 17:23N 47°01' W 124°45'1 1.0
2015-Jul-25 16:33N 47°02' W 124°44'2 1.7
2015-Jul-25 15:33N 47°04' W 124°44'2 1.7
2015-Jul-25 14:27N 47°05' W 124°45'  
2015-Jul-22 11:27N 47°04' W 124°21'2 7.0
2015-Jul-22 11:10N 47°03' W 124°20'5 7.3
2015-Jul-22 10:30N 46°59' W 124°16'4 0.2
2015-Jul-21 13:34N 46°56' W 124°12'9 8.2
2015-Jul-21 12:30N 47°03' W 124°19'017.9
2015-Jul-21 12:30N 47°03' W 124°19'65 3.1
2015-Jul-20 15:33N 47°59' W 125°07'2 1.9
2015-Jul-20 14:44N 48°00' W 125°05'0 1.7
2015-Jul-20 14:33N 48°00' W 125°05'1 0.1
2015-Jul-19 18:25N 48°02' W 125°05'1 1.1
2015-Jul-19 17:30N 48°01' W 125°05'2 1.7
2015-Jul-19 16:33N 47°59' W 125°04'0 0.3
2015-Jul-19 15:33N 47°59' W 125°04'1 1.1
2015-Jul-19 14:33N 47°58' W 125°05'1 1.6
2015-Jul-19 13:59N 47°57' W 125°04'1 1.8
2015-Jul-19 13:33N 47°57' W 125°03'2 2.2
2015-Jul-19 12:43N 47°57' W 125°01'0 0.7
2015-Jul-19 12:33N 47°57' W 125°01'1 0.6
2015-Jul-19 10:21N 47°58' W 125°03'0 0.4
2015-Jul-19 09:33N 47°58' W 125°03'0 0.3
2015-Jul-19 08:24N 47°58' W 125°04'1 1.2
2015-Jul-19 07:30N 47°57' W 125°03'3 2.9
2015-Jul-19 06:33N 47°55' W 125°01'4 4.1
2015-Jul-19 05:31N 47°51' W 124°58'3 3.0
2015-Jul-19 04:33N 47°48' W 124°57'1 0.3
2015-Jul-19 00:33N 47°49' W 124°57'2 1.8
2015-Jul-18 23:13N 47°47' W 124°57'11 1.3
2015-Jul-18 14:32N 47°57' W 125°03'1 0.3
2015-Jul-18 09:28N 47°58' W 125°05'1 0.4
2015-Jul-18 07:03N 47°58' W 125°06'0 0.5
2015-Jul-18 06:33N 47°59' W 125°06'1 0.7
2015-Jul-18 05:33N 47°59' W 125°07'1 0.3
2015-Jul-18 03:29N 47°60' W 125°07'2 1.7
2015-Jul-18 02:33N 47°58' W 125°06'1 1.2
2015-Jul-18 01:24N 47°57' W 125°06'2 2.6
2015-Jul-18 00:33N 47°55' W 125°04'6 6.0
2015-Jul-17 23:33N 47°54' W 124°55'1 1.5
2015-Jul-17 22:33N 47°52' W 124°55'1 0.9
2015-Jul-17 21:05N 47°51' W 124°55'3 1.6
2015-Jul-17 19:26N 47°53' W 124°56'3 1.4
2015-Jul-17 17:27N 47°50' W 124°55'10 7.8
2015-Jul-17 16:09N 47°41' W 124°50'5 7.7
2015-Jul-17 15:33N 47°37' W 124°47'7 7.1
2015-Jul-17 14:33N 47°31' W 124°41'7 7.1
2015-Jul-17 13:33N 47°25' W 124°36'8 6.8
2015-Jul-17 12:27N 47°18' W 124°30'7 6.9
2015-Jul-17 11:29N 47°12' W 124°26'7 7.0
2015-Jul-17 10:27N 47°06' W 124°21'6 7.1
2015-Jul-17 09:33N 47°01' W 124°16'  
Track history (hours):
 
Tides and Currents Weather Stations Pressure Air Temp Water Temp Dewpoint Dewpoint Depression Visibility Wind Speed Wind Dir Waves Ship Positions

Jamie Marie

Owner: Jamie Marie, Inc., Aberdeen, WA. More information available from US FCC via Universal Licensing System and Coast Guard Vessel Documentation Center.

Last reported at 2015-Jul-26 05:33 UTC. Time now 2015-Jul-28 03:30 UTC.
Position N 46°56' W 124°13'.

Length 30 m.

Type: Fishing. MMSI: 366425240.

Date/timePositionNaut miles runAvg speedWind from/ knotsBaromVisibWave heightAir tempDewpointWater temp
2015-Jul-26 05:33N 46°56' W 124°13'9 8.7
2015-Jul-26 04:33N 46°59' W 124°25'9 9.1
2015-Jul-26 03:33N 47°04' W 124°36'6 2.6
2015-Jul-26 01:26N 47°05' W 124°44'2 0.9
2015-Jul-25 22:31N 47°03' W 124°44'2 1.7
2015-Jul-25 21:29N 47°04' W 124°45'1 0.2
2015-Jul-25 19:27N 47°05' W 124°45'4 1.7
2015-Jul-25 17:23N 47°01' W 124°45'1 1.0
2015-Jul-25 16:33N 47°02' W 124°44'2 1.7
2015-Jul-25 15:33N 47°04' W 124°44'2 1.7
2015-Jul-25 14:27N 47°05' W 124°45'  
2015-Jul-22 11:27N 47°04' W 124°21'2 7.0
2015-Jul-22 11:10N 47°03' W 124°20'5 7.3
2015-Jul-22 10:30N 46°59' W 124°16'4 0.2
2015-Jul-21 13:34N 46°56' W 124°12'9 8.2
2015-Jul-21 12:30N 47°03' W 124°19'017.9
2015-Jul-21 12:30N 47°03' W 124°19'65 3.1
2015-Jul-20 15:33N 47°59' W 125°07'2 1.9
2015-Jul-20 14:44N 48°00' W 125°05'0 1.7
2015-Jul-20 14:33N 48°00' W 125°05'1 0.1
2015-Jul-19 18:25N 48°02' W 125°05'1 1.1
2015-Jul-19 17:30N 48°01' W 125°05'2 1.7
2015-Jul-19 16:33N 47°59' W 125°04'0 0.3
2015-Jul-19 15:33N 47°59' W 125°04'1 1.1
2015-Jul-19 14:33N 47°58' W 125°05'1 1.6
2015-Jul-19 13:59N 47°57' W 125°04'1 1.8
2015-Jul-19 13:33N 47°57' W 125°03'2 2.2
2015-Jul-19 12:43N 47°57' W 125°01'0 0.7
2015-Jul-19 12:33N 47°57' W 125°01'1 0.6
2015-Jul-19 10:21N 47°58' W 125°03'0 0.4
2015-Jul-19 09:33N 47°58' W 125°03'0 0.3
2015-Jul-19 08:24N 47°58' W 125°04'1 1.2
2015-Jul-19 07:30N 47°57' W 125°03'3 2.9
2015-Jul-19 06:33N 47°55' W 125°01'4 4.1
2015-Jul-19 05:31N 47°51' W 124°58'3 3.0
2015-Jul-19 04:33N 47°48' W 124°57'1 0.3
2015-Jul-19 00:33N 47°49' W 124°57'2 1.8
2015-Jul-18 23:13N 47°47' W 124°57'11 1.3
2015-Jul-18 14:32N 47°57' W 125°03'1 0.3
2015-Jul-18 09:28N 47°58' W 125°05'1 0.4
2015-Jul-18 07:03N 47°58' W 125°06'0 0.5
2015-Jul-18 06:33N 47°59' W 125°06'1 0.7
2015-Jul-18 05:33N 47°59' W 125°07'1 0.3
2015-Jul-18 03:29N 47°60' W 125°07'2 1.7
2015-Jul-18 02:33N 47°58' W 125°06'1 1.2
2015-Jul-18 01:24N 47°57' W 125°06'2 2.6
2015-Jul-18 00:33N 47°55' W 125°04'6 6.0
2015-Jul-17 23:33N 47°54' W 124°55'1 1.5
2015-Jul-17 22:33N 47°52' W 124°55'1 0.9
2015-Jul-17 21:05N 47°51' W 124°55'3 1.6
2015-Jul-17 19:26N 47°53' W 124°56'3 1.4
2015-Jul-17 17:27N 47°50' W 124°55'10 7.8
2015-Jul-17 16:09N 47°41' W 124°50'5 7.7
2015-Jul-17 15:33N 47°37' W 124°47'7 7.1
2015-Jul-17 14:33N 47°31' W 124°41'7 7.1
2015-Jul-17 13:33N 47°25' W 124°36'8 6.8
2015-Jul-17 12:27N 47°18' W 124°30'7 6.9
2015-Jul-17 11:29N 47°12' W 124°26'7 7.0
2015-Jul-17 10:27N 47°06' W 124°21'6 7.1
2015-Jul-17 09:33N 47°01' W 124°16'  

Dump ship's entire track history